Montreal-Nord, Canada
Current Conditions -  °F | °C
As of 5:00 PM on Monday 20 Oct 2014 (Local Time) from CYUL Reporting Station
Light Rain Light Rain  
Wind Chill: 43°   Ceiling: 3000
Heat Index: 43°   Visibility: 15mi
Dew Point: 34°   Wind: 0mph
Humidity: 70%   Direction: NA
Pressure: 29.93"   Gusts: NA
Location:  45.6°N, 73.62°W
Report Text: CYUL 202100Z 00000KT 15SM -RA BKN030 OVC070 06/01 A2993 RMK SC6AS2 SLP137
Loading
Personal Weather Stations






























Interactive Weather Map
Tropical Storm Tracking
New forecast layout! Learn more

10-Day Weather Forecast

Advertisements
Track Severe Weather on mobile